FNKU

Kuito Airport

Kuito, Angola
TAF FNKU 251045Z 2512/2524 36005KT 9999 SCT015 TEMPO 2514/2518 VRB03KT 9000 FEW016 BKN020
Issued Valid From Valid To
Sep-25 @ 10:45 UTC
(7 hours ago)
Sep-25 @ 12:00 UTC
(6 hours ago)
Sep-26 @ 00:00 UTC
(in 6 hours)
Sep-25 @ 12:00 to Sep-26 @ 00:00
TAF FNKU 251045Z 2512/2524 36005KT 9999 SCT015
Wind Visibility Clouds
360° at 5 knots 10,000+ meters
  • Scattered at 1,500' AGL
Temporary Sep-25 @ 14:00 to Sep-25 @ 18:00
TEMPO 2514/2518 VRB03KT 9000 FEW016 BKN020
Wind Visibility Clouds
Variable at 3 knots 8,996 meters
  • Few at 1,600' AGL
  • Broken at 2,000' AGL
TAF FNKU 251045Z 2512/2524 36005KT 9999 SCT015 TEMPO 2514/2518 VRB03KT 9000 FEW016 BKN020
Issued Sep-25 @ 10:45 UTC
(7 hours ago)
Valid From Sep-25 @ 12:00 UTC
(6 hours ago)
Valid To Sep-26 @ 00:00 UTC
(in 6 hours)
Sep-25 @ 12:00 - Sep-26 @ 00:00
Wind Visibility
360° at 5 knots 10,000+ meters
Clouds
  • Scattered at 1,500' AGL
Temporary Sep-25 @ 14:00 - Sep-25 @ 18:00
Wind Visibility
Variable at 3 knots 8,996 meters
Clouds
  • Few at 1,600' AGL
  • Broken at 2,000' AGL